sensor_id;sensor_type;location;lat;lon;timestamp;P1;durP1;ratioP1;P2;durP2;ratioP2
42118;SDS011;27783;42.782;23.274;2022-09-09T00:01:49;8.80;;;8.20;;
42118;SDS011;27783;42.782;23.274;2022-09-09T00:04:30;10.05;;;9.07;;
42118;SDS011;27783;42.782;23.274;2022-09-09T00:07:14;8.63;;;8.02;;
42118;SDS011;27783;42.782;23.274;2022-09-09T00:15:19;9.83;;;9.13;;
42118;SDS011;27783;42.782;23.274;2022-09-09T00:17:51;8.95;;;8.25;;
42118;SDS011;27783;42.782;23.274;2022-09-09T00:23:06;8.70;;;8.10;;
42118;SDS011;27783;42.782;23.274;2022-09-09T00:28:13;9.20;;;8.60;;
42118;SDS011;27783;42.782;23.274;2022-09-09T00:30:43;9.75;;;8.80;;
42118;SDS011;27783;42.782;23.274;2022-09-09T00:33:12;9.57;;;8.88;;
42118;SDS011;27783;42.782;23.274;2022-09-09T00:36:14;10.32;;;9.30;;
42118;SDS011;27783;42.782;23.274;2022-09-09T00:38:59;10.10;;;9.47;;
42118;SDS011;27783;42.782;23.274;2022-09-09T00:52:47;9.10;;;8.23;;
42118;SDS011;27783;42.782;23.274;2022-09-09T00:55:45;9.00;;;8.40;;
42118;SDS011;27783;42.782;23.274;2022-09-09T00:58:23;8.25;;;7.57;;
42118;SDS011;27783;42.782;23.274;2022-09-09T01:01:01;9.35;;;8.45;;
42118;SDS011;27783;42.782;23.274;2022-09-09T01:03:39;7.97;;;7.38;;
42118;SDS011;27783;42.782;23.274;2022-09-09T01:09:00;8.48;;;7.88;;
42118;SDS011;27783;42.782;23.274;2022-09-09T01:17:01;8.50;;;7.93;;
42118;SDS011;27783;42.782;23.274;2022-09-09T01:27:45;9.90;;;9.10;;
42118;SDS011;27783;42.782;23.274;2022-09-09T01:35:08;10.33;;;9.23;;
42118;SDS011;27783;42.782;23.274;2022-09-09T01:37:55;9.38;;;7.80;;
42118;SDS011;27783;42.782;23.274;2022-09-09T01:40:21;8.50;;;7.90;;
42118;SDS011;27783;42.782;23.274;2022-09-09T01:42:47;9.18;;;8.48;;
42118;SDS011;27783;42.782;23.274;2022-09-09T01:45:12;8.45;;;7.85;;
42118;SDS011;27783;42.782;23.274;2022-09-09T01:47:38;9.32;;;8.63;;
42118;SDS011;27783;42.782;23.274;2022-09-09T01:50:03;8.43;;;7.80;;
42118;SDS011;27783;42.782;23.274;2022-09-09T01:52:29;7.65;;;7.13;;
42118;SDS011;27783;42.782;23.274;2022-09-09T01:54:57;8.45;;;7.93;;
42118;SDS011;27783;42.782;23.274;2022-09-09T01:57:24;8.82;;;8.13;;
42118;SDS011;27783;42.782;23.274;2022-09-09T02:00:08;8.27;;;7.53;;
42118;SDS011;27783;42.782;23.274;2022-09-09T02:02:50;9.60;;;8.57;;
42118;SDS011;27783;42.782;23.274;2022-09-09T02:05:40;8.82;;;8.07;;
42118;SDS011;27783;42.782;23.274;2022-09-09T02:11:11;7.90;;;7.18;;
42118;SDS011;27783;42.782;23.274;2022-09-09T02:13:39;7.88;;;7.28;;
42118;SDS011;27783;42.782;23.274;2022-09-09T02:18:46;9.43;;;8.73;;
42118;SDS011;27783;42.782;23.274;2022-09-09T02:21:17;9.35;;;8.55;;
42118;SDS011;27783;42.782;23.274;2022-09-09T02:23:43;9.43;;;8.68;;
42118;SDS011;27783;42.782;23.274;2022-09-09T02:26:12;9.07;;;8.27;;
42118;SDS011;27783;42.782;23.274;2022-09-09T02:28:44;10.18;;;9.18;;
42118;SDS011;27783;42.782;23.274;2022-09-09T02:31:11;9.32;;;8.48;;
42118;SDS011;27783;42.782;23.274;2022-09-09T02:33:44;9.85;;;8.77;;
42118;SDS011;27783;42.782;23.274;2022-09-09T02:36:16;9.25;;;8.50;;
42118;SDS011;27783;42.782;23.274;2022-09-09T02:38:44;8.95;;;8.25;;
42118;SDS011;27783;42.782;23.274;2022-09-09T02:41:16;8.18;;;7.57;;
42118;SDS011;27783;42.782;23.274;2022-09-09T02:43:44;8.98;;;8.18;;
42118;SDS011;27783;42.782;23.274;2022-09-09T02:49:02;9.05;;;8.35;;
42118;SDS011;27783;42.782;23.274;2022-09-09T02:54:33;9.48;;;8.63;;
42118;SDS011;27783;42.782;23.274;2022-09-09T02:57:06;9.93;;;8.98;;
42118;SDS011;27783;42.782;23.274;2022-09-09T02:59:34;9.30;;;8.57;;
42118;SDS011;27783;42.782;23.274;2022-09-09T03:01:59;9.50;;;8.80;;
42118;SDS011;27783;42.782;23.274;2022-09-09T03:04:26;10.05;;;8.63;;
42118;SDS011;27783;42.782;23.274;2022-09-09T03:06:51;9.30;;;8.65;;
42118;SDS011;27783;42.782;23.274;2022-09-09T03:09:17;9.82;;;8.90;;
42118;SDS011;27783;42.782;23.274;2022-09-09T03:11:42;8.95;;;8.15;;
42118;SDS011;27783;42.782;23.274;2022-09-09T03:14:07;10.00;;;8.10;;
42118;SDS011;27783;42.782;23.274;2022-09-09T03:16:33;9.63;;;8.80;;
42118;SDS011;27783;42.782;23.274;2022-09-09T03:19:00;11.02;;;9.55;;
42118;SDS011;27783;42.782;23.274;2022-09-09T03:21:26;8.77;;;8.07;;
42118;SDS011;27783;42.782;23.274;2022-09-09T03:23:51;9.43;;;8.65;;
42118;SDS011;27783;42.782;23.274;2022-09-09T03:26:17;8.20;;;7.53;;
42118;SDS011;27783;42.782;23.274;2022-09-09T03:28:42;8.80;;;8.00;;
42118;SDS011;27783;42.782;23.274;2022-09-09T03:31:08;9.40;;;8.07;;
42118;SDS011;27783;42.782;23.274;2022-09-09T03:33:35;11.25;;;8.63;;
42118;SDS011;27783;42.782;23.274;2022-09-09T03:36:04;9.52;;;8.68;;
42118;SDS011;27783;42.782;23.274;2022-09-09T03:38:30;9.27;;;7.72;;
42118;SDS011;27783;42.782;23.274;2022-09-09T03:40:57;9.80;;;8.27;;
42118;SDS011;27783;42.782;23.274;2022-09-09T03:43:23;10.95;;;8.52;;
42118;SDS011;27783;42.782;23.274;2022-09-09T03:45:50;9.77;;;8.88;;
42118;SDS011;27783;42.782;23.274;2022-09-09T03:48:16;10.18;;;9.10;;
42118;SDS011;27783;42.782;23.274;2022-09-09T03:50:49;9.27;;;8.40;;
42118;SDS011;27783;42.782;23.274;2022-09-09T03:53:17;11.27;;;9.45;;
42118;SDS011;27783;42.782;23.274;2022-09-09T03:55:44;9.35;;;8.65;;
42118;SDS011;27783;42.782;23.274;2022-09-09T03:58:12;11.95;;;10.82;;
42118;SDS011;27783;42.782;23.274;2022-09-09T04:00:38;14.23;;;9.52;;
42118;SDS011;27783;42.782;23.274;2022-09-09T04:03:07;10.25;;;9.00;;
42118;SDS011;27783;42.782;23.274;2022-09-09T04:05:36;13.23;;;9.95;;
42118;SDS011;27783;42.782;23.274;2022-09-09T04:08:05;10.60;;;8.40;;
42118;SDS011;27783;42.782;23.274;2022-09-09T04:10:33;9.98;;;8.30;;
42118;SDS011;27783;42.782;23.274;2022-09-09T04:13:02;8.50;;;7.70;;
42118;SDS011;27783;42.782;23.274;2022-09-09T04:15:28;10.68;;;8.55;;
42118;SDS011;27783;42.782;23.274;2022-09-09T04:17:54;12.40;;;8.80;;
42118;SDS011;27783;42.782;23.274;2022-09-09T04:20:19;11.60;;;9.80;;
42118;SDS011;27783;42.782;23.274;2022-09-09T04:22:44;10.95;;;9.25;;
42118;SDS011;27783;42.782;23.274;2022-09-09T04:25:10;10.40;;;9.30;;
42118;SDS011;27783;42.782;23.274;2022-09-09T04:27:35;13.13;;;8.80;;
42118;SDS011;27783;42.782;23.274;2022-09-09T04:30:00;12.57;;;9.63;;
42118;SDS011;27783;42.782;23.274;2022-09-09T04:32:26;10.70;;;9.48;;
42118;SDS011;27783;42.782;23.274;2022-09-09T04:34:52;10.43;;;9.52;;
42118;SDS011;27783;42.782;23.274;2022-09-09T04:37:17;11.25;;;9.35;;
42118;SDS011;27783;42.782;23.274;2022-09-09T04:39:42;10.30;;;9.52;;
42118;SDS011;27783;42.782;23.274;2022-09-09T04:42:08;11.20;;;10.02;;
42118;SDS011;27783;42.782;23.274;2022-09-09T04:44:33;10.45;;;9.35;;
42118;SDS011;27783;42.782;23.274;2022-09-09T04:46:59;16.23;;;9.82;;
42118;SDS011;27783;42.782;23.274;2022-09-09T04:49:24;12.48;;;9.50;;
42118;SDS011;27783;42.782;23.274;2022-09-09T04:51:50;13.75;;;9.63;;
42118;SDS011;27783;42.782;23.274;2022-09-09T04:54:16;10.77;;;9.70;;
42118;SDS011;27783;42.782;23.274;2022-09-09T04:56:41;19.15;;;9.80;;
42118;SDS011;27783;42.782;23.274;2022-09-09T04:59:07;17.58;;;10.00;;
42118;SDS011;27783;42.782;23.274;2022-09-09T05:01:34;11.07;;;9.95;;
42118;SDS011;27783;42.782;23.274;2022-09-09T05:03:59;10.38;;;9.45;;
42118;SDS011;27783;42.782;23.274;2022-09-09T05:06:25;10.27;;;9.45;;
42118;SDS011;27783;42.782;23.274;2022-09-09T05:08:50;11.48;;;10.35;;
42118;SDS011;27783;42.782;23.274;2022-09-09T05:11:22;19.98;;;10.70;;
42118;SDS011;27783;42.782;23.274;2022-09-09T05:13:50;12.50;;;11.32;;
42118;SDS011;27783;42.782;23.274;2022-09-09T05:16:17;23.80;;;12.02;;
42118;SDS011;27783;42.782;23.274;2022-09-09T05:18:43;12.10;;;11.18;;
42118;SDS011;27783;42.782;23.274;2022-09-09T05:21:09;12.77;;;11.68;;
42118;SDS011;27783;42.782;23.274;2022-09-09T05:23:38;13.02;;;11.35;;
42118;SDS011;27783;42.782;23.274;2022-09-09T05:26:05;13.65;;;11.05;;
42118;SDS011;27783;42.782;23.274;2022-09-09T05:28:33;13.27;;;10.45;;
42118;SDS011;27783;42.782;23.274;2022-09-09T05:31:03;12.27;;;11.07;;
42118;SDS011;27783;42.782;23.274;2022-09-09T05:33:37;15.57;;;11.27;;
42118;SDS011;27783;42.782;23.274;2022-09-09T05:36:09;11.60;;;10.80;;
42118;SDS011;27783;42.782;23.274;2022-09-09T05:38:38;13.48;;;12.02;;
42118;SDS011;27783;42.782;23.274;2022-09-09T05:41:04;13.13;;;11.88;;
42118;SDS011;27783;42.782;23.274;2022-09-09T05:43:30;12.82;;;11.10;;
42118;SDS011;27783;42.782;23.274;2022-09-09T05:46:06;18.35;;;10.73;;
42118;SDS011;27783;42.782;23.274;2022-09-09T05:48:34;11.65;;;10.55;;
42118;SDS011;27783;42.782;23.274;2022-09-09T05:51:02;11.52;;;10.40;;
42118;SDS011;27783;42.782;23.274;2022-09-09T05:53:29;13.25;;;10.52;;
42118;SDS011;27783;42.782;23.274;2022-09-09T05:56:03;11.55;;;10.52;;
42118;SDS011;27783;42.782;23.274;2022-09-09T05:58:30;9.50;;;8.80;;
42118;SDS011;27783;42.782;23.274;2022-09-09T06:01:07;9.82;;;8.98;;
42118;SDS011;27783;42.782;23.274;2022-09-09T06:03:35;10.40;;;9.70;;
42118;SDS011;27783;42.782;23.274;2022-09-09T06:06:03;9.63;;;8.93;;
42118;SDS011;27783;42.782;23.274;2022-09-09T06:08:33;9.15;;;8.50;;
42118;SDS011;27783;42.782;23.274;2022-09-09T06:11:11;8.93;;;8.15;;
42118;SDS011;27783;42.782;23.274;2022-09-09T06:13:44;8.38;;;7.68;;
42118;SDS011;27783;42.782;23.274;2022-09-09T06:16:11;9.00;;;8.20;;
42118;SDS011;27783;42.782;23.274;2022-09-09T06:18:39;9.45;;;7.47;;
42118;SDS011;27783;42.782;23.274;2022-09-09T06:21:06;8.35;;;7.65;;
42118;SDS011;27783;42.782;23.274;2022-09-09T06:23:33;10.00;;;8.07;;
42118;SDS011;27783;42.782;23.274;2022-09-09T06:26:06;8.88;;;7.22;;
42118;SDS011;27783;42.782;23.274;2022-09-09T06:28:34;8.70;;;7.82;;
42118;SDS011;27783;42.782;23.274;2022-09-09T06:31:01;8.75;;;7.25;;
42118;SDS011;27783;42.782;23.274;2022-09-09T06:33:32;8.73;;;7.68;;
42118;SDS011;27783;42.782;23.274;2022-09-09T06:36:04;7.50;;;6.82;;
42118;SDS011;27783;42.782;23.274;2022-09-09T06:38:30;7.75;;;7.05;;
42118;SDS011;27783;42.782;23.274;2022-09-09T06:40:57;7.55;;;6.95;;
42118;SDS011;27783;42.782;23.274;2022-09-09T06:43:26;7.13;;;6.45;;
42118;SDS011;27783;42.782;23.274;2022-09-09T06:48:24;26.05;;;7.63;;
42118;SDS011;27783;42.782;23.274;2022-09-09T06:51:03;13.15;;;6.90;;
42118;SDS011;27783;42.782;23.274;2022-09-09T06:53:30;8.48;;;6.30;;
42118;SDS011;27783;42.782;23.274;2022-09-09T06:55:58;16.05;;;5.97;;
42118;SDS011;27783;42.782;23.274;2022-09-09T06:58:27;9.40;;;5.25;;
42118;SDS011;27783;42.782;23.274;2022-09-09T07:01:01;8.02;;;5.72;;
42118;SDS011;27783;42.782;23.274;2022-09-09T07:03:28;6.50;;;5.85;;
42118;SDS011;27783;42.782;23.274;2022-09-09T07:05:54;5.22;;;4.75;;
42118;SDS011;27783;42.782;23.274;2022-09-09T07:08:21;16.08;;;5.40;;
42118;SDS011;27783;42.782;23.274;2022-09-09T07:10:46;6.43;;;5.15;;
42118;SDS011;27783;42.782;23.274;2022-09-09T07:13:12;9.82;;;5.85;;
42118;SDS011;27783;42.782;23.274;2022-09-09T07:15:40;9.43;;;4.80;;
42118;SDS011;27783;42.782;23.274;2022-09-09T07:18:06;7.95;;;4.93;;
42118;SDS011;27783;42.782;23.274;2022-09-09T07:20:31;11.45;;;5.15;;
42118;SDS011;27783;42.782;23.274;2022-09-09T07:22:57;10.65;;;4.43;;
42118;SDS011;27783;42.782;23.274;2022-09-09T07:25:24;9.32;;;5.03;;
42118;SDS011;27783;42.782;23.274;2022-09-09T07:27:51;15.43;;;4.43;;
42118;SDS011;27783;42.782;23.274;2022-09-09T07:30:17;19.38;;;4.55;;
42118;SDS011;27783;42.782;23.274;2022-09-09T07:32:44;7.90;;;4.35;;
42118;SDS011;27783;42.782;23.274;2022-09-09T07:35:09;8.68;;;4.35;;
42118;SDS011;27783;42.782;23.274;2022-09-09T07:37:36;6.43;;;4.68;;
42118;SDS011;27783;42.782;23.274;2022-09-09T07:40:02;8.95;;;5.40;;
42118;SDS011;27783;42.782;23.274;2022-09-09T07:42:28;10.85;;;5.18;;
42118;SDS011;27783;42.782;23.274;2022-09-09T07:44:54;4.63;;;4.03;;
42118;SDS011;27783;42.782;23.274;2022-09-09T07:47:20;7.05;;;4.68;;
42118;SDS011;27783;42.782;23.274;2022-09-09T07:49:46;6.68;;;4.20;;
42118;SDS011;27783;42.782;23.274;2022-09-09T07:52:11;4.50;;;4.10;;
42118;SDS011;27783;42.782;23.274;2022-09-09T07:54:37;6.53;;;3.72;;
42118;SDS011;27783;42.782;23.274;2022-09-09T07:57:03;5.10;;;3.95;;
42118;SDS011;27783;42.782;23.274;2022-09-09T07:59:29;4.32;;;3.65;;
42118;SDS011;27783;42.782;23.274;2022-09-09T08:01:55;6.15;;;3.80;;
42118;SDS011;27783;42.782;23.274;2022-09-09T08:04:21;5.03;;;4.32;;
42118;SDS011;27783;42.782;23.274;2022-09-09T08:06:48;5.18;;;3.75;;
42118;SDS011;27783;42.782;23.274;2022-09-09T08:09:15;3.95;;;3.50;;
42118;SDS011;27783;42.782;23.274;2022-09-09T08:11:41;5.07;;;3.50;;
42118;SDS011;27783;42.782;23.274;2022-09-09T08:14:08;3.92;;;3.63;;
42118;SDS011;27783;42.782;23.274;2022-09-09T08:16:35;3.60;;;3.30;;
42118;SDS011;27783;42.782;23.274;2022-09-09T08:19:02;3.97;;;3.65;;
42118;SDS011;27783;42.782;23.274;2022-09-09T08:21:29;4.07;;;3.70;;
42118;SDS011;27783;42.782;23.274;2022-09-09T08:23:57;4.57;;;3.60;;
42118;SDS011;27783;42.782;23.274;2022-09-09T08:26:24;5.63;;;3.50;;
42118;SDS011;27783;42.782;23.274;2022-09-09T08:28:53;4.15;;;3.85;;
42118;SDS011;27783;42.782;23.274;2022-09-09T08:33:50;4.35;;;3.45;;
42118;SDS011;27783;42.782;23.274;2022-09-09T08:36:17;5.05;;;3.60;;
42118;SDS011;27783;42.782;23.274;2022-09-09T08:38:43;3.72;;;3.20;;
42118;SDS011;27783;42.782;23.274;2022-09-09T08:43:47;13.02;;;4.65;;
42118;SDS011;27783;42.782;23.274;2022-09-09T08:46:21;4.68;;;4.20;;
42118;SDS011;27783;42.782;23.274;2022-09-09T08:48:59;4.30;;;3.78;;
42118;SDS011;27783;42.782;23.274;2022-09-09T08:51:31;6.63;;;3.63;;
42118;SDS011;27783;42.782;23.274;2022-09-09T08:53:58;6.72;;;3.95;;
42118;SDS011;27783;42.782;23.274;2022-09-09T08:56:27;8.88;;;4.78;;
42118;SDS011;27783;42.782;23.274;2022-09-09T08:58:55;7.20;;;4.05;;
42118;SDS011;27783;42.782;23.274;2022-09-09T09:12:50;5.95;;;3.85;;
42118;SDS011;27783;42.782;23.274;2022-09-09T09:15:18;10.65;;;4.95;;
42118;SDS011;27783;42.782;23.274;2022-09-09T09:17:46;4.22;;;3.92;;
42118;SDS011;27783;42.782;23.274;2022-09-09T09:20:14;5.22;;;4.00;;
42118;SDS011;27783;42.782;23.274;2022-09-09T09:22:48;5.50;;;4.13;;
42118;SDS011;27783;42.782;23.274;2022-09-09T09:25:34;5.43;;;4.15;;
42118;SDS011;27783;42.782;23.274;2022-09-09T09:28:15;4.55;;;3.83;;
42118;SDS011;27783;42.782;23.274;2022-09-09T09:30:53;5.22;;;3.92;;
42118;SDS011;27783;42.782;23.274;2022-09-09T09:36:06;4.60;;;3.80;;
42118;SDS011;27783;42.782;23.274;2022-09-09T09:38:33;4.43;;;3.93;;
42118;SDS011;27783;42.782;23.274;2022-09-09T09:41:00;5.00;;;3.53;;
42118;SDS011;27783;42.782;23.274;2022-09-09T09:45:51;4.53;;;3.88;;
42118;SDS011;27783;42.782;23.274;2022-09-09T09:48:17;4.60;;;4.28;;
42118;SDS011;27783;42.782;23.274;2022-09-09T09:50:52;6.45;;;4.93;;
42118;SDS011;27783;42.782;23.274;2022-09-09T09:56:02;4.20;;;3.95;;
42118;SDS011;27783;42.782;23.274;2022-09-09T09:58:30;4.05;;;3.75;;
42118;SDS011;27783;42.782;23.274;2022-09-09T10:00:59;4.65;;;4.25;;
42118;SDS011;27783;42.782;23.274;2022-09-09T10:03:32;4.85;;;4.45;;
42118;SDS011;27783;42.782;23.274;2022-09-09T10:06:02;4.97;;;4.50;;
42118;SDS011;27783;42.782;23.274;2022-09-09T10:08:28;5.90;;;5.00;;
42118;SDS011;27783;42.782;23.274;2022-09-09T10:16:25;4.80;;;4.40;;
42118;SDS011;27783;42.782;23.274;2022-09-09T10:19:09;5.43;;;4.65;;
42118;SDS011;27783;42.782;23.274;2022-09-09T10:29:40;7.05;;;5.20;;
42118;SDS011;27783;42.782;23.274;2022-09-09T10:32:45;11.68;;;6.22;;
42118;SDS011;27783;42.782;23.274;2022-09-09T10:38:10;12.82;;;6.18;;
42118;SDS011;27783;42.782;23.274;2022-09-09T10:45:39;8.05;;;5.80;;
42118;SDS011;27783;42.782;23.274;2022-09-09T10:48:27;11.27;;;5.88;;
42118;SDS011;27783;42.782;23.274;2022-09-09T10:51:08;11.38;;;6.50;;
42118;SDS011;27783;42.782;23.274;2022-09-09T10:53:50;7.00;;;5.00;;
42118;SDS011;27783;42.782;23.274;2022-09-09T10:56:17;7.88;;;4.95;;
42118;SDS011;27783;42.782;23.274;2022-09-09T10:58:56;6.57;;;5.25;;
42118;SDS011;27783;42.782;23.274;2022-09-09T11:01:29;8.23;;;4.82;;
42118;SDS011;27783;42.782;23.274;2022-09-09T11:04:00;6.53;;;4.93;;
42118;SDS011;27783;42.782;23.274;2022-09-09T11:06:40;6.95;;;5.38;;
42118;SDS011;27783;42.782;23.274;2022-09-09T11:09:14;5.93;;;5.38;;
42118;SDS011;27783;42.782;23.274;2022-09-09T11:11:48;6.15;;;4.93;;
42118;SDS011;27783;42.782;23.274;2022-09-09T11:14:19;6.18;;;5.68;;
42118;SDS011;27783;42.782;23.274;2022-09-09T11:17:02;5.70;;;5.20;;
42118;SDS011;27783;42.782;23.274;2022-09-09T11:22:15;4.85;;;4.45;;
42118;SDS011;27783;42.782;23.274;2022-09-09T11:24:59;7.40;;;5.35;;
42118;SDS011;27783;42.782;23.274;2022-09-09T11:38:16;6.63;;;4.65;;
42118;SDS011;27783;42.782;23.274;2022-09-09T11:40:46;5.55;;;5.03;;
42118;SDS011;27783;42.782;23.274;2022-09-09T11:43:17;5.07;;;4.68;;
42118;SDS011;27783;42.782;23.274;2022-09-09T11:45:55;6.13;;;5.60;;
42118;SDS011;27783;42.782;23.274;2022-09-09T11:49:25;5.72;;;5.32;;
42118;SDS011;27783;42.782;23.274;2022-09-09T11:51:29;5.63;;;5.13;;
42118;SDS011;27783;42.782;23.274;2022-09-09T11:54:00;6.72;;;4.80;;
42118;SDS011;27783;42.782;23.274;2022-09-09T11:56:46;5.00;;;4.47;;
42118;SDS011;27783;42.782;23.274;2022-09-09T12:01:50;5.40;;;4.90;;
42118;SDS011;27783;42.782;23.274;2022-09-09T12:04:34;8.57;;;5.88;;
42118;SDS011;27783;42.782;23.274;2022-09-09T12:17:36;6.07;;;5.47;;
42118;SDS011;27783;42.782;23.274;2022-09-09T12:28:17;7.63;;;6.13;;
42118;SDS011;27783;42.782;23.274;2022-09-09T12:30:49;6.13;;;5.63;;
42118;SDS011;27783;42.782;23.274;2022-09-09T12:33:18;7.00;;;6.18;;
42118;SDS011;27783;42.782;23.274;2022-09-09T12:35:45;6.10;;;5.68;;
42118;SDS011;27783;42.782;23.274;2022-09-09T12:38:39;6.75;;;6.20;;
42118;SDS011;27783;42.782;23.274;2022-09-09T12:41:04;6.05;;;5.47;;
42118;SDS011;27783;42.782;23.274;2022-09-09T12:43:30;6.10;;;5.60;;
42118;SDS011;27783;42.782;23.274;2022-09-09T12:46:07;5.82;;;5.30;;
42118;SDS011;27783;42.782;23.274;2022-09-09T12:48:39;5.90;;;5.35;;
42118;SDS011;27783;42.782;23.274;2022-09-09T12:51:17;6.13;;;5.72;;
42118;SDS011;27783;42.782;23.274;2022-09-09T12:53:58;5.70;;;5.22;;
42118;SDS011;27783;42.782;23.274;2022-09-09T12:56:25;7.70;;;5.45;;
42118;SDS011;27783;42.782;23.274;2022-09-09T12:58:54;5.65;;;5.03;;
42118;SDS011;27783;42.782;23.274;2022-09-09T13:03:49;5.68;;;5.18;;
42118;SDS011;27783;42.782;23.274;2022-09-09T13:06:22;9.80;;;6.05;;
42118;SDS011;27783;42.782;23.274;2022-09-09T13:08:52;7.05;;;6.13;;
42118;SDS011;27783;42.782;23.274;2022-09-09T13:11:20;12.00;;;5.50;;
42118;SDS011;27783;42.782;23.274;2022-09-09T13:13:54;9.60;;;5.43;;
42118;SDS011;27783;42.782;23.274;2022-09-09T13:18:48;4.95;;;4.47;;
42118;SDS011;27783;42.782;23.274;2022-09-09T13:21:14;6.40;;;5.22;;
42118;SDS011;27783;42.782;23.274;2022-09-09T13:23:40;5.50;;;4.32;;
42118;SDS011;27783;42.782;23.274;2022-09-09T13:26:18;12.05;;;5.03;;
42118;SDS011;27783;42.782;23.274;2022-09-09T13:28:49;6.07;;;4.93;;
42118;SDS011;27783;42.782;23.274;2022-09-09T13:31:27;9.00;;;4.72;;
42118;SDS011;27783;42.782;23.274;2022-09-09T13:33:55;21.15;;;6.53;;
42118;SDS011;27783;42.782;23.274;2022-09-09T13:36:30;10.77;;;5.00;;
42118;SDS011;27783;42.782;23.274;2022-09-09T13:39:00;11.23;;;5.60;;
42118;SDS011;27783;42.782;23.274;2022-09-09T13:41:32;15.30;;;6.07;;
42118;SDS011;27783;42.782;23.274;2022-09-09T13:44:00;10.30;;;5.28;;
42118;SDS011;27783;42.782;23.274;2022-09-09T13:48:59;5.15;;;4.45;;
42118;SDS011;27783;42.782;23.274;2022-09-09T13:51:36;8.65;;;5.63;;
42118;SDS011;27783;42.782;23.274;2022-09-09T13:54:08;7.15;;;4.90;;
42118;SDS011;27783;42.782;23.274;2022-09-09T13:56:35;7.88;;;5.40;;
42118;SDS011;27783;42.782;23.274;2022-09-09T13:59:01;5.68;;;4.82;;
42118;SDS011;27783;42.782;23.274;2022-09-09T14:01:28;5.85;;;5.15;;
42118;SDS011;27783;42.782;23.274;2022-09-09T14:03:53;7.28;;;5.05;;
42118;SDS011;27783;42.782;23.274;2022-09-09T14:06:19;8.38;;;5.50;;
42118;SDS011;27783;42.782;23.274;2022-09-09T14:08:47;8.55;;;5.65;;
42118;SDS011;27783;42.782;23.274;2022-09-09T14:11:16;7.80;;;5.78;;
42118;SDS011;27783;42.782;23.274;2022-09-09T14:13:42;6.22;;;5.18;;
42118;SDS011;27783;42.782;23.274;2022-09-09T14:16:07;5.38;;;4.88;;
42118;SDS011;27783;42.782;23.274;2022-09-09T14:18:32;5.00;;;4.43;;
42118;SDS011;27783;42.782;23.274;2022-09-09T14:20:58;6.35;;;4.95;;
42118;SDS011;27783;42.782;23.274;2022-09-09T14:23:25;21.67;;;6.43;;
42118;SDS011;27783;42.782;23.274;2022-09-09T14:25:51;13.52;;;5.70;;
42118;SDS011;27783;42.782;23.274;2022-09-09T14:28:17;11.00;;;5.13;;
42118;SDS011;27783;42.782;23.274;2022-09-09T14:30:42;12.02;;;5.70;;
42118;SDS011;27783;42.782;23.274;2022-09-09T14:33:10;12.77;;;4.63;;
42118;SDS011;27783;42.782;23.274;2022-09-09T14:35:36;6.43;;;4.75;;
42118;SDS011;27783;42.782;23.274;2022-09-09T14:38:03;12.10;;;4.22;;
42118;SDS011;27783;42.782;23.274;2022-09-09T14:40:29;4.95;;;4.45;;
42118;SDS011;27783;42.782;23.274;2022-09-09T14:42:54;5.40;;;4.90;;
42118;SDS011;27783;42.782;23.274;2022-09-09T14:45:21;6.95;;;4.75;;
42118;SDS011;27783;42.782;23.274;2022-09-09T14:47:49;6.22;;;4.40;;
42118;SDS011;27783;42.782;23.274;2022-09-09T14:50:15;6.68;;;4.90;;
42118;SDS011;27783;42.782;23.274;2022-09-09T14:52:41;7.15;;;4.28;;
42118;SDS011;27783;42.782;23.274;2022-09-09T14:55:08;6.53;;;3.65;;
42118;SDS011;27783;42.782;23.274;2022-09-09T14:57:34;11.15;;;5.18;;
42118;SDS011;27783;42.782;23.274;2022-09-09T15:00:00;12.25;;;4.90;;
42118;SDS011;27783;42.782;23.274;2022-09-09T15:02:27;12.88;;;4.90;;
42118;SDS011;27783;42.782;23.274;2022-09-09T15:04:54;21.13;;;5.90;;
42118;SDS011;27783;42.782;23.274;2022-09-09T15:07:22;29.83;;;6.70;;
42118;SDS011;27783;42.782;23.274;2022-09-09T15:09:48;24.58;;;5.57;;
42118;SDS011;27783;42.782;23.274;2022-09-09T15:12:14;20.40;;;6.45;;
42118;SDS011;27783;42.782;23.274;2022-09-09T15:14:40;18.75;;;6.57;;
42118;SDS011;27783;42.782;23.274;2022-09-09T15:17:05;14.32;;;5.82;;
42118;SDS011;27783;42.782;23.274;2022-09-09T15:19:31;10.32;;;5.63;;
42118;SDS011;27783;42.782;23.274;2022-09-09T15:21:57;10.95;;;5.35;;
42118;SDS011;27783;42.782;23.274;2022-09-09T15:24:24;9.88;;;5.35;;
42118;SDS011;27783;42.782;23.274;2022-09-09T15:26:50;7.50;;;4.60;;
42118;SDS011;27783;42.782;23.274;2022-09-09T15:29:16;5.15;;;4.20;;
42118;SDS011;27783;42.782;23.274;2022-09-09T15:31:41;5.45;;;4.93;;
42118;SDS011;27783;42.782;23.274;2022-09-09T15:34:07;8.27;;;5.25;;
42118;SDS011;27783;42.782;23.274;2022-09-09T15:38:59;6.32;;;5.65;;
42118;SDS011;27783;42.782;23.274;2022-09-09T15:41:25;5.78;;;5.20;;
42118;SDS011;27783;42.782;23.274;2022-09-09T15:43:52;8.63;;;5.60;;
42118;SDS011;27783;42.782;23.274;2022-09-09T15:46:54;5.97;;;5.38;;
42118;SDS011;27783;42.782;23.274;2022-09-09T15:49:19;6.63;;;4.93;;
42118;SDS011;27783;42.782;23.274;2022-09-09T15:51:54;6.70;;;4.60;;
42118;SDS011;27783;42.782;23.274;2022-09-09T15:54:22;6.38;;;5.57;;
42118;SDS011;27783;42.782;23.274;2022-09-09T15:56:56;5.28;;;4.78;;
42118;SDS011;27783;42.782;23.274;2022-09-09T15:59:23;5.40;;;4.93;;
42118;SDS011;27783;42.782;23.274;2022-09-09T16:01:50;6.30;;;5.33;;
42118;SDS011;27783;42.782;23.274;2022-09-09T16:04:19;5.88;;;5.38;;
42118;SDS011;27783;42.782;23.274;2022-09-09T16:06:51;8.60;;;5.97;;
42118;SDS011;27783;42.782;23.274;2022-09-09T16:09:19;8.68;;;5.85;;
42118;SDS011;27783;42.782;23.274;2022-09-09T16:11:44;13.30;;;6.57;;
42118;SDS011;27783;42.782;23.274;2022-09-09T16:14:11;11.68;;;7.25;;
42118;SDS011;27783;42.782;23.274;2022-09-09T16:16:37;8.05;;;6.65;;
42118;SDS011;27783;42.782;23.274;2022-09-09T16:19:06;20.42;;;7.15;;
42118;SDS011;27783;42.782;23.274;2022-09-09T16:21:36;15.88;;;6.97;;
42118;SDS011;27783;42.782;23.274;2022-09-09T16:24:05;22.10;;;8.00;;
42118;SDS011;27783;42.782;23.274;2022-09-09T16:26:32;20.23;;;6.93;;
42118;SDS011;27783;42.782;23.274;2022-09-09T16:28:59;13.52;;;6.65;;
42118;SDS011;27783;42.782;23.274;2022-09-09T16:31:26;11.75;;;6.15;;
42118;SDS011;27783;42.782;23.274;2022-09-09T16:33:52;10.27;;;5.82;;
42118;SDS011;27783;42.782;23.274;2022-09-09T16:36:22;12.85;;;5.90;;
42118;SDS011;27783;42.782;23.274;2022-09-09T16:38:51;6.95;;;5.53;;
42118;SDS011;27783;42.782;23.274;2022-09-09T16:41:19;11.52;;;5.95;;
42118;SDS011;27783;42.782;23.274;2022-09-09T16:43:45;10.20;;;6.63;;
42118;SDS011;27783;42.782;23.274;2022-09-09T16:46:16;13.32;;;6.88;;
42118;SDS011;27783;42.782;23.274;2022-09-09T16:48:44;17.10;;;7.13;;
42118;SDS011;27783;42.782;23.274;2022-09-09T16:53:40;10.90;;;6.30;;
42118;SDS011;27783;42.782;23.274;2022-09-09T16:56:13;8.23;;;5.90;;
42118;SDS011;27783;42.782;23.274;2022-09-09T16:58:41;7.80;;;5.43;;
42118;SDS011;27783;42.782;23.274;2022-09-09T17:01:10;13.32;;;6.25;;
42118;SDS011;27783;42.782;23.274;2022-09-09T17:03:38;9.57;;;5.63;;
42118;SDS011;27783;42.782;23.274;2022-09-09T17:06:08;29.25;;;8.88;;
42118;SDS011;27783;42.782;23.274;2022-09-09T17:08:35;25.77;;;7.65;;
42118;SDS011;27783;42.782;23.274;2022-09-09T17:11:00;25.20;;;8.45;;
42118;SDS011;27783;42.782;23.274;2022-09-09T17:13:26;17.58;;;7.50;;